KGRK - Killeen-Ft Hood Rgnl, TX, US

Issued at 1600 UTC 29 May 2020
Updated at 2245 UTC 29 May 2020
Potential Impact None Slight Moderate High
Time2158Z 29/23Z 30/00Z 30/01Z 30/02Z 30/03Z 30/04Z 30/05Z 30/06Z 30/07Z 30/08Z 30/09Z 30/10Z 30/11Z>>
Type OBS PRVL PRVL PRVL PRVL PRVL PRVL PRVL PRVL PRVL PRVL PRVL PRVL PRVL
VIS 10 >6 >6 >6 >6 >6 >6 >6 >6 >6 >6 >6 >6 >6
CIG -- -- -- -- -- -- -- -- -- -- -- -- -- --
Cover CLR SKC SKC SKC SKC SKC SKC SKC SKC SKC SKC SKC SKC SKC
FltCat VFR VFR VFR VFR VFR VFR VFR VFR VFR VFR VFR VFR VFR VFR
WX -- -- -- -- -- -- -- -- -- -- -- -- -- --
WDir 30 40 20 20 20 20 20 20 20 20 20 20 20 20
WSpd 11 12 9 9 9 9 9 9 9 9 9 9 9 9
WGst -- 18 -- -- -- -- -- -- -- -- -- -- -- --
Raw TAF
TAF KGRK 291600Z 2916/3022 04012G18KT 9999 SKC QNH3010INS
  BECMG 3000/3001 02009KT 9999 SKC QNH3008INS TX30/2921Z TN17/3011Z


Raw METAR
KGRK 292158Z AUTO 03011KT 10SM CLR 29/12 A3011 RMK AO2 SLP187 T02920123
KGRK 292109Z AUTO 07013KT 10SM CLR 29/13 A3012 RMK AO2 WSHFT 04 SLP190
KGRK 292058Z AUTO 03010G20KT 10SM CLR 29/13 A3013 RMK AO2 SLP194 T02920125 58002
KGRK 292043Z AUTO 03013KT 10SM CLR 29/13 A3013 RMK AO2 WSHFT 38 SLP194
KGRK 291958Z AUTO 04012KT 10SM CLR 29/14 A3013 RMK AO2 SLP194 T02860140

METAR Board
For situational awareness. Not to be used for flight planning purposes.